Time;durP1;ratioP1;P1;durP2;ratioP2;P2;SDS_P1;SDS_P2;PMS_P1;PMS_P2;Temp;Humidity;BMP_temperature;BMP_pressure;BME280_temperature;BME280_humidity;BME280_pressure;Samples;Min_cycle;Max_cycle;Signal;HPM_P1;HPM_P2
2021/12/04 16:57:01;;;;;;;8.30;2.37;;;21.80;51.90;;;;;;6352647;27;20774;-36
2021/12/04 17:03:51;;;;;;;4.00;2.17;;;22.10;52.00;;;;;;6375431;27;20776;-39
2021/12/04 17:06:55;;;;;;;8.60;2.70;;;21.90;51.40;;;;;;6344004;28;20183;-40
2021/12/04 17:12:18;;;;;;;13.60;3.33;;;21.70;51.20;;;;;;6323514;27;20734;-66
2021/12/04 17:15:19;;;;;;;7.27;2.90;;;21.70;49.30;;;;;;6296830;28;20197;-66
2021/12/04 17:18:24;;;;;;;9.13;2.33;;;21.70;49.30;;;;;;6281838;28;20227;-67
2021/12/04 17:21:25;;;;;;;5.60;2.60;;;21.80;49.90;;;;;;6281445;28;20198;-67
2021/12/04 17:24:29;;;;;;;6.37;2.20;;;21.80;50.10;;;;;;6292315;28;20193;-67
2021/12/04 17:27:31;;;;;;;7.00;2.33;;;21.80;50.40;;;;;;6290628;28;20254;-67
2021/12/04 17:30:31;;;;;;;5.70;2.23;;;21.80;50.60;;;;;;6274381;28;20216;-67
2021/12/04 17:33:32;;;;;;;6.50;2.93;;;21.80;50.80;;;;;;6283202;28;20254;-66
2021/12/04 17:36:34;;;;;;;7.87;2.53;;;21.80;50.80;;;;;;6274673;28;20185;-67
2021/12/04 17:39:35;;;;;;;4.70;2.20;;;21.80;51.00;;;;;;6275163;28;20200;-69
2021/12/04 17:42:38;;;;;;;6.37;2.90;;;21.80;51.20;;;;;;6269375;28;20210;-65
2021/12/04 17:45:39;;;;;;;8.13;2.13;;;21.90;51.60;;;;;;6287916;28;20252;-65
2021/12/04 17:50:07;;;;;;;6.97;3.63;;;21.80;49.60;;;;;;6345247;27;20284;-64
2021/12/04 17:53:08;;;;;;;13.57;4.13;;;21.60;49.10;;;;;;6317274;28;20195;-64
2021/12/04 17:57:58;;;;;;;8.90;7.67;;;19.80;31.20;;;;;;6294154;27;20320;-60
2021/12/04 18:01:02;;;;;;;9.57;7.67;;;10.00;42.60;;;;;;6232185;28;20264;-59
2021/12/04 18:04:06;;;;;;;15.17;10.60;;;6.90;50.40;;;;;;6252833;28;20191;-59
2021/12/04 18:07:13;;;;;;;10.80;8.20;;;4.80;57.10;;;;;;6229851;28;20228;-59
2021/12/04 18:10:15;;;;;;;8.23;6.07;;;3.40;62.20;;;;;;6254482;28;20201;-59
2021/12/04 18:13:18;;;;;;;7.40;6.17;;;2.70;65.60;;;;;;6257688;28;20289;-60
2021/12/04 18:16:24;;;;;;;5.70;5.03;;;2.30;69.50;;;;;;6233567;28;20233;-59
2021/12/04 18:19:28;;;;;;;8.23;6.63;;;2.00;70.40;;;;;;6249552;28;20186;-59
2021/12/04 18:22:29;;;;;;;8.87;5.90;;;1.80;72.30;;;;;;6252347;28;20283;-59
2021/12/04 18:25:30;;;;;;;8.57;6.20;;;1.30;71.60;;;;;;6238859;28;20197;-58
2021/12/04 18:28:31;;;;;;;10.13;7.13;;;1.10;72.80;;;;;;6247564;28;20194;-59
2021/12/04 18:31:32;;;;;;;8.90;6.43;;;0.90;74.10;;;;;;6244943;28;20215;-60
2021/12/04 18:34:33;;;;;;;7.30;6.40;;;0.90;74.80;;;;;;6254161;28;20213;-60
2021/12/04 18:37:35;;;;;;;19.40;11.73;;;0.90;76.40;;;;;;6249105;28;20210;-59
2021/12/04 18:40:38;;;;;;;9.33;7.33;;;0.90;76.80;;;;;;6256026;28;20214;-60
2021/12/04 18:43:44;;;;;;;9.93;6.47;;;0.80;77.30;;;;;;6248134;28;20191;-60
2021/12/04 18:46:45;;;;;;;8.60;6.17;;;0.80;78.10;;;;;;6234932;28;20190;-60
2021/12/04 18:49:46;;;;;;;7.07;5.67;;;0.80;76.90;;;;;;6234067;28;20194;-58
2021/12/04 18:52:47;;;;;;;7.40;6.07;;;0.80;77.00;;;;;;6231106;28;20220;-58
2021/12/04 18:55:48;;;;;;;8.30;5.40;;;0.80;77.70;;;;;;6255385;28;20317;-58
2021/12/04 18:58:50;;;;;;;6.63;5.53;;;0.90;75.80;;;;;;6247367;28;20194;-58
2021/12/04 19:01:51;;;;;;;13.63;8.27;;;0.90;76.40;;;;;;6254484;28;20194;-59
2021/12/04 19:04:55;;;;;;;9.57;7.30;;;1.00;76.30;;;;;;6244902;28;20200;-59
2021/12/04 19:07:56;;;;;;;10.03;7.17;;;1.00;76.20;;;;;;6262488;28;20191;-59
2021/12/04 19:10:57;;;;;;;8.63;5.60;;;1.10;73.80;;;;;;6242059;28;20285;-59
2021/12/04 19:13:58;;;;;;;11.47;7.60;;;1.10;73.60;;;;;;6210346;28;20203;-58
2021/12/04 19:16:59;;;;;;;9.20;5.40;;;0.90;73.80;;;;;;6215164;28;20361;-58
2021/12/04 19:20:06;;;;;;;7.60;5.37;;;0.90;74.50;;;;;;6236698;28;20199;-58
2021/12/04 19:23:07;;;;;;;8.27;5.83;;;0.90;75.50;;;;;;6225418;28;20187;-57
2021/12/04 19:26:10;;;;;;;9.13;6.17;;;0.90;76.30;;;;;;6231446;28;20252;-58
2021/12/04 19:29:16;;;;;;;9.83;6.77;;;0.90;76.10;;;;;;6218752;28;20205;-58
2021/12/04 19:32:24;;;;;;;12.40;7.63;;;1.00;78.20;;;;;;6224477;28;20200;-58
2021/12/04 19:36:17;;;;;;;8.57;6.10;;;1.10;78.50;;;;;;6233817;28;20215;-58
2021/12/04 19:51:59;;;;;;;14.17;8.77;;;1.30;74.10;;;;;;6242682;28;20202;-57
2021/12/04 19:55:12;;;;;;;11.67;8.97;;;1.40;73.40;;;;;;6253918;28;20208;-58
2021/12/04 19:58:13;;;;;;;10.70;7.23;;;1.30;74.40;;;;;;6229951;28;20286;-58
2021/12/04 20:01:30;;;;;;;11.30;7.50;;;1.30;74.80;;;;;;6241335;28;20206;-60
2021/12/04 20:14:18;;;;;;;9.47;6.93;;;1.20;75.00;;;;;;6245566;28;20238;-60
2021/12/04 20:17:19;;;;;;;11.10;7.23;;;1.20;76.50;;;;;;6223993;28;20218;-58
2021/12/04 20:20:23;;;;;;;8.27;6.70;;;1.30;76.50;;;;;;6215377;28;20194;-60
2021/12/04 20:23:26;;;;;;;10.57;7.30;;;1.30;75.40;;;;;;6227231;28;20199;-60
2021/12/04 20:26:40;;;;;;;10.83;6.97;;;1.30;75.80;;;;;;6223946;28;20223;-60
2021/12/04 20:29:56;;;;;;;9.80;7.00;;;1.30;76.40;;;;;;6224097;28;20195;-59
2021/12/04 20:33:10;;;;;;;10.10;6.87;;;1.30;78.10;;;;;;6209819;28;20199;-59
2021/12/04 20:52:56;;;;;;;9.73;6.50;;;1.20;77.40;;;;;;6227852;28;20288;-60
2021/12/04 21:12:32;;;;;;;10.17;6.53;;;1.30;78.70;;;;;;6225325;28;20203;-61
2021/12/04 21:38:54;;;;;;;10.87;8.07;;;0.80;84.40;;;;;;6230238;28;20215;-59
2021/12/04 21:51:54;;;;;;;17.40;11.77;;;0.70;84.90;;;;;;6224559;28;20215;-60
2021/12/04 21:54:58;;;;;;;14.90;9.03;;;0.70;85.80;;;;;;6233642;28;20217;-60
2021/12/04 22:11:09;;;;;;;8.30;6.50;;;0.60;88.30;;;;;;6222898;28;20282;-60
2021/12/04 23:01:03;;;;;;;6.97;4.97;;;0.40;92.50;;;;;;6232687;28;20194;-62
2021/12/04 23:13:57;;;;;;;11.47;8.43;;;0.60;93.30;;;;;;6232890;28;20199;-61
2021/12/04 23:36:57;;;;;;;6.43;5.57;;;0.70;93.00;;;;;;6243586;28;20215;-61
2021/12/04 23:40:46;;;;;;;5.70;4.93;;;0.70;92.80;;;;;;6209635;28;20290;-60
